Time;durP1;ratioP1;P1;durP2;ratioP2;P2;SDS_P1;SDS_P2;PMS_P1;PMS_P2;Temp;Humidity;BMP_temperature;BMP_pressure;BME280_temperature;BME280_humidity;BME280_pressure;Samples;Min_cycle;Max_cycle;Signal;HPM_P1;HPM_P2
2024/04/15 00:00:37;;;;;;;4.32;2.65;;;;;;;15.55;44.68;95348.84;5447651;26;19999;-75
2024/04/15 00:03:03;;;;;;;5.00;2.50;;;;;;;15.52;45.06;95353.28;5443568;26;20331;-76
2024/04/15 00:05:29;;;;;;;6.57;2.53;;;;;;;15.49;44.95;95357.00;5446266;26;20351;-76
2024/04/15 00:07:54;;;;;;;5.80;2.30;;;;;;;15.44;45.08;95356.81;5444653;26;19995;-77
2024/04/15 00:10:20;;;;;;;5.22;2.50;;;;;;;15.44;44.97;95348.50;5445734;26;20011;-75
2024/04/15 00:12:45;;;;;;;4.13;2.50;;;;;;;15.36;45.09;95343.25;5447051;26;19998;-76
2024/04/15 00:15:10;;;;;;;4.75;2.60;;;;;;;15.35;45.07;95352.03;5414725;26;20007;-75
2024/04/15 00:17:36;;;;;;;6.20;2.50;;;;;;;15.29;44.82;95349.09;5416456;26;20437;-75
2024/04/15 00:20:01;;;;;;;5.47;2.60;;;;;;;15.24;45.55;95343.38;5414312;26;20071;-76
2024/04/15 00:22:27;;;;;;;3.78;2.47;;;;;;;15.18;46.04;95339.66;5447746;26;20006;-76
2024/04/15 00:24:52;;;;;;;6.03;2.90;;;;;;;15.17;45.79;95344.44;5444084;26;20426;-76
2024/04/15 00:27:17;;;;;;;4.55;2.50;;;;;;;15.08;46.10;95341.63;5448298;26;20007;-76
2024/04/15 00:29:43;;;;;;;3.42;2.47;;;;;;;15.12;46.03;95345.03;5446843;26;19995;-76
2024/04/15 00:32:08;;;;;;;2.55;2.13;;;;;;;15.11;45.97;95340.72;5444614;26;20067;-76
2024/04/15 00:34:33;;;;;;;5.20;2.58;;;;;;;15.14;45.72;95345.38;5445453;26;20045;-76
2024/04/15 00:36:59;;;;;;;6.05;2.70;;;;;;;15.08;45.89;95333.31;5414089;26;20432;-76
2024/04/15 00:39:27;;;;;;;6.80;2.90;;;;;;;15.05;46.01;95340.56;5447242;26;19995;-76
2024/04/15 00:41:52;;;;;;;4.18;2.60;;;;;;;15.02;46.10;95335.91;5443552;26;20503;-76
2024/04/15 00:44:18;;;;;;;5.57;2.58;;;;;;;14.99;46.00;95339.63;5445060;26;20003;-76
2024/04/15 00:46:43;;;;;;;6.70;2.80;;;;;;;14.90;45.98;95345.09;5444647;26;20083;-76
2024/04/15 00:49:11;;;;;;;6.88;3.20;;;;;;;14.86;45.98;95336.19;5447404;26;19995;-76
2024/04/15 00:51:38;;;;;;;5.15;2.70;;;;;;;14.82;45.77;95335.53;5447417;26;20441;-76
2024/04/15 00:54:04;;;;;;;4.97;2.55;;;;;;;14.80;45.67;95327.72;5447041;26;19999;-76
2024/04/15 00:56:29;;;;;;;5.57;3.05;;;;;;;14.77;46.13;95327.84;5448824;26;19999;-76
2024/04/15 00:58:55;;;;;;;5.82;2.70;;;;;;;14.72;46.52;95331.97;5416527;26;20022;-76
2024/04/15 01:01:20;;;;;;;3.85;2.42;;;;;;;14.72;46.19;95340.25;5448782;26;20006;-77
2024/04/15 01:03:46;;;;;;;8.60;2.45;;;;;;;14.65;46.24;95328.69;5446741;26;20010;-75
2024/04/15 01:06:11;;;;;;;8.05;3.78;;;;;;;14.64;46.15;95332.69;5448229;26;19995;-75
2024/04/15 01:08:37;;;;;;;6.15;2.50;;;;;;;14.63;46.27;95331.16;5448751;26;19995;-76
2024/04/15 01:11:02;;;;;;;6.32;2.35;;;;;;;14.59;46.24;95325.75;5447689;26;20048;-76
2024/04/15 01:13:28;;;;;;;6.07;2.25;;;;;;;14.56;46.46;95327.41;5449632;26;20067;-76
2024/04/15 01:15:57;;;;;;;5.32;2.90;;;;;;;14.50;46.99;95323.69;5416730;26;19999;-75
2024/04/15 01:18:23;;;;;;;6.82;2.47;;;;;;;14.48;47.14;95334.44;5448890;26;20007;-76
2024/04/15 01:20:49;;;;;;;4.20;2.60;;;;;;;14.45;47.37;95331.78;5446700;26;20007;-75
2024/04/15 01:23:15;;;;;;;5.97;2.92;;;;;;;14.44;46.88;95328.25;5448502;26;20361;-76
2024/04/15 01:25:40;;;;;;;7.10;2.67;;;;;;;14.45;46.66;95340.06;5446589;26;19994;-77
2024/04/15 01:28:06;;;;;;;6.38;2.92;;;;;;;14.36;47.01;95329.75;5448296;26;20526;-74
2024/04/15 01:30:31;;;;;;;3.88;2.85;;;;;;;14.34;47.13;95332.97;5448286;26;20441;-75
2024/04/15 01:32:58;;;;;;;5.38;2.58;;;;;;;14.34;46.88;95330.22;5416844;26;19999;-76
2024/04/15 01:35:24;;;;;;;5.38;2.60;;;;;;;14.32;46.90;95326.34;5447392;26;20010;-75
2024/04/15 01:37:50;;;;;;;7.82;2.63;;;;;;;14.32;47.50;95332.63;5446761;26;20063;-76
2024/04/15 01:40:15;;;;;;;3.78;2.40;;;;;;;14.27;47.22;95324.91;5448209;26;20002;-76
2024/04/15 01:42:41;;;;;;;6.60;2.67;;;;;;;14.29;47.86;95325.25;5446484;26;20361;-76
2024/04/15 01:45:06;;;;;;;5.30;2.50;;;;;;;14.27;47.83;95326.91;5447871;26;19995;-76
2024/04/15 01:47:34;;;;;;;5.18;2.42;;;;;;;14.23;48.04;95321.53;5448179;26;20005;-77
2024/04/15 01:50:00;;;;;;;6.40;2.67;;;;;;;14.23;47.81;95321.53;5447313;26;19995;-75
2024/04/15 01:52:25;;;;;;;4.43;2.20;;;;;;;14.11;48.32;95321.59;5448523;26;20414;-75
2024/04/15 01:54:50;;;;;;;4.03;2.20;;;;;;;14.13;48.26;95328.22;5448209;26;19995;-76
2024/04/15 01:57:16;;;;;;;5.70;2.75;;;;;;;14.07;48.10;95319.72;5447340;26;19995;-76
2024/04/15 01:59:41;;;;;;;6.35;2.85;;;;;;;14.05;47.57;95307.59;5447781;26;20007;-77
2024/04/15 02:02:07;;;;;;;8.05;2.67;;;;;;;14.03;47.50;95312.78;5446936;26;20341;-76
2024/04/15 02:04:32;;;;;;;5.78;2.50;;;;;;;13.99;47.15;95310.16;5444118;26;20075;-76
2024/04/15 02:06:57;;;;;;;7.05;2.90;;;;;;;13.94;47.30;95310.75;5448058;26;20404;-76
2024/04/15 02:09:23;;;;;;;6.00;2.97;;;;;;;13.92;47.63;95313.16;5447638;26;20005;-76
2024/04/15 02:11:48;;;;;;;5.85;2.90;;;;;;;13.92;47.85;95313.16;5449225;26;20071;-75
2024/04/15 02:14:13;;;;;;;5.60;2.80;;;;;;;13.85;48.55;95307.91;5447937;26;20649;-75
2024/04/15 02:16:39;;;;;;;6.60;2.45;;;;;;;13.81;48.41;95310.00;5447034;26;19999;-76
2024/04/15 02:19:05;;;;;;;7.38;3.50;;;;;;;13.83;48.23;95313.13;5447141;26;20071;-75
2024/04/15 02:21:30;;;;;;;7.88;2.83;;;;;;;13.83;48.02;95304.81;5447834;26;20351;-76
2024/04/15 02:23:56;;;;;;;6.63;3.53;;;;;;;13.74;48.55;95296.47;5449130;26;19999;-76
2024/04/15 02:26:21;;;;;;;8.63;3.50;;;;;;;13.70;48.83;95293.81;5445832;26;19999;-76
2024/04/15 02:28:47;;;;;;;11.65;3.30;;;;;;;13.67;48.75;95299.47;5418041;26;19995;-75
2024/04/15 02:31:12;;;;;;;10.65;3.58;;;;;;;13.64;48.72;95303.88;5446554;26;19998;-76
2024/04/15 02:33:37;;;;;;;9.43;3.35;;;;;;;13.64;49.11;95303.13;5449400;26;20072;-76
2024/04/15 02:36:03;;;;;;;13.30;4.35;;;;;;;13.62;48.89;95305.56;5448512;26;19997;-77
2024/04/15 02:38:29;;;;;;;13.70;3.85;;;;;;;13.61;48.83;95296.50;5448268;26;20002;-76
2024/04/15 02:40:55;;;;;;;8.38;3.47;;;;;;;13.53;49.06;95296.00;5447089;26;19999;-76
2024/04/15 02:43:20;;;;;;;6.90;3.15;;;;;;;13.50;48.89;95299.63;5448258;26;20022;-75
2024/04/15 02:45:47;;;;;;;10.85;3.63;;;;;;;13.50;49.15;95296.88;5447674;26;20002;-75
2024/04/15 02:48:13;;;;;;;14.55;4.22;;;;;;;13.50;49.28;95298.88;5415962;26;20399;-75
2024/04/15 02:50:39;;;;;;;9.10;3.25;;;;;;;13.46;49.34;95298.22;5447101;26;19995;-76
2024/04/15 02:53:04;;;;;;;13.45;3.35;;;;;;;13.42;49.17;95290.06;5446466;26;20010;-75
2024/04/15 02:55:29;;;;;;;10.38;3.42;;;;;;;13.39;49.45;95287.41;5447729;26;19999;-76
2024/04/15 02:57:55;;;;;;;8.50;3.53;;;;;;;13.36;49.32;95286.34;5416324;26;20006;-75
2024/04/15 03:00:21;;;;;;;7.10;3.72;;;;;;;13.36;49.38;95289.09;5445854;26;20005;-76
2024/04/15 03:02:46;;;;;;;8.65;4.03;;;;;;;13.30;49.69;95293.63;5447001;26;20014;-77
2024/04/15 03:05:11;;;;;;;9.95;3.78;;;;;;;13.23;49.60;95286.34;5415369;26;20047;-77
2024/04/15 03:07:37;;;;;;;7.97;3.50;;;;;;;13.22;49.78;95286.81;5447123;26;20450;-75
2024/04/15 03:10:02;;;;;;;12.75;3.60;;;;;;;13.16;49.77;95278.28;5445276;26;20071;-75
2024/04/15 03:12:28;;;;;;;8.38;3.47;;;;;;;13.17;49.81;95281.81;5445663;26;19995;-77
2024/04/15 03:14:53;;;;;;;10.27;3.75;;;;;;;13.06;49.95;95279.41;5445579;26;20014;-76
2024/04/15 03:17:19;;;;;;;6.30;3.15;;;;;;;13.05;50.04;95274.34;5445918;26;19999;-74
2024/04/15 03:19:44;;;;;;;9.90;3.30;;;;;;;13.02;50.26;95278.75;5446033;26;20010;-76
2024/04/15 03:22:09;;;;;;;11.68;3.20;;;;;;;13.03;50.00;95278.31;5446763;26;19999;-75
2024/04/15 03:24:36;;;;;;;7.97;3.28;;;;;;;13.09;50.17;95291.56;5446602;26;20010;-76
2024/04/15 03:27:01;;;;;;;9.95;3.53;;;;;;;13.05;50.50;95288.13;5444748;26;19994;-75
2024/04/15 03:29:27;;;;;;;6.78;3.38;;;;;;;13.00;51.14;95284.72;5445673;26;20004;-76
2024/04/15 03:31:52;;;;;;;10.57;3.45;;;;;;;12.95;51.59;95288.03;5447028;26;19995;-76
2024/04/15 03:34:18;;;;;;;17.98;5.15;;;;;;;12.96;51.33;95284.06;5445809;26;19998;-76
2024/04/15 03:36:43;;;;;;;7.53;3.70;;;;;;;12.96;51.57;95283.28;5447633;26;19998;-75
2024/04/15 03:39:09;;;;;;;7.20;3.60;;;;;;;12.94;51.75;95286.47;5414360;26;20001;-75
2024/04/15 03:41:34;;;;;;;8.32;3.75;;;;;;;12.93;51.92;95284.94;5447719;26;20427;-76
2024/04/15 03:44:00;;;;;;;7.85;3.55;;;;;;;12.94;51.84;95280.97;5446439;26;20010;-76
2024/04/15 03:46:25;;;;;;;15.10;3.97;;;;;;;12.93;51.57;95297.97;5446293;26;19998;-77
2024/04/15 03:48:50;;;;;;;11.10;4.18;;;;;;;12.88;51.80;95281.97;5446643;26;19999;-76
2024/04/15 03:51:16;;;;;;;10.35;3.70;;;;;;;12.88;52.11;95287.50;5445239;26;19999;-76
2024/04/15 03:53:42;;;;;;;8.43;3.85;;;;;;;12.91;52.21;95292.91;5446448;26;20019;-75
2024/04/15 03:56:07;;;;;;;8.93;3.83;;;;;;;12.86;52.30;95284.41;5445214;26;20142;-76
2024/04/15 03:58:32;;;;;;;9.85;4.55;;;;;;;12.87;52.40;95281.19;5447289;26;20009;-76
2024/04/15 04:01:01;;;;;;;11.60;4.20;;;;;;;12.90;52.56;95285.06;5444808;26;19998;-77
2024/04/15 04:03:26;;;;;;;11.63;4.15;;;;;;;12.91;52.37;95283.84;5445473;26;19994;-76
2024/04/15 04:05:55;;;;;;;14.23;4.82;;;;;;;12.82;52.68;95279.00;5445790;26;20013;-77
2024/04/15 04:08:20;;;;;;;15.68;4.90;;;;;;;12.90;52.53;95294.13;5445349;26;20075;-77
2024/04/15 04:10:47;;;;;;;11.32;5.18;;;;;;;12.87;52.67;95289.47;5444024;26;20392;-75
2024/04/15 04:13:12;;;;;;;13.77;5.22;;;;;;;12.87;52.78;95286.72;5414913;26;19995;-76
2024/04/15 04:15:38;;;;;;;18.13;4.57;;;;;;;12.90;53.07;95296.88;5445811;26;20009;-76
2024/04/15 04:18:07;;;;;;;9.70;5.20;;;;;;;12.90;52.95;95296.09;5444123;26;20028;-77
2024/04/15 04:20:32;;;;;;;12.60;5.35;;;;;;;12.91;52.93;95292.91;5444828;26;20006;-76
2024/04/15 04:22:58;;;;;;;11.50;5.47;;;;;;;12.89;53.28;95284.28;5444066;26;20334;-75
2024/04/15 04:25:24;;;;;;;10.02;4.20;;;;;;;12.93;53.19;95297.97;5448672;26;20067;-76
2024/04/15 04:27:50;;;;;;;14.30;5.65;;;;;;;12.90;53.48;95307.13;5449364;26;20351;-76
2024/04/15 04:30:15;;;;;;;12.65;5.18;;;;;;;12.85;53.47;95299.44;5418410;26;20392;-75
2024/04/15 04:32:42;;;;;;;11.27;4.93;;;;;;;12.85;53.52;95302.97;5449419;26;20131;-75
2024/04/15 04:35:08;;;;;;;9.75;4.75;;;;;;;12.87;53.83;95311.56;5447791;26;20009;-77
2024/04/15 04:37:34;;;;;;;12.80;5.13;;;;;;;12.94;53.50;95305.81;5447724;26;19999;-76
2024/04/15 04:39:59;;;;;;;10.20;4.20;;;;;;;12.99;53.28;95299.72;5449192;26;19995;-76
2024/04/15 04:42:24;;;;;;;9.55;4.30;;;;;;;13.00;52.90;95300.50;5448921;26;20001;-78
2024/04/15 04:44:54;;;;;;;13.02;4.13;;;;;;;13.01;52.97;95313.06;5448027;26;19999;-76
2024/04/15 04:47:20;;;;;;;15.80;5.40;;;;;;;13.05;53.05;95304.69;5450260;26;20002;-78
2024/04/15 04:49:50;;;;;;;12.80;4.78;;;;;;;13.07;52.82;95296.72;5447907;26;19999;-78
2024/04/15 04:52:15;;;;;;;9.25;4.20;;;;;;;13.08;53.01;95298.28;5448174;26;20414;-77
2024/04/15 04:54:41;;;;;;;10.00;4.57;;;;;;;13.11;52.70;95306.44;5417153;26;19995;-78
2024/04/15 04:57:08;;;;;;;11.82;4.70;;;;;;;13.10;52.51;95290.34;5447903;26;20048;-76
2024/04/15 04:59:33;;;;;;;7.28;3.78;;;;;;;13.20;51.86;95305.78;5417996;26;20002;-76
2024/04/15 05:01:59;;;;;;;7.15;3.85;;;;;;;13.20;51.42;95301.03;5446505;26;20445;-76
2024/04/15 05:04:26;;;;;;;11.07;4.50;;;;;;;13.21;51.39;95299.84;5447464;26;19999;-76
2024/04/15 05:06:51;;;;;;;11.00;4.38;;;;;;;13.27;51.05;95297.28;5448659;26;20104;-77
2024/04/15 05:09:16;;;;;;;15.60;5.15;;;;;;;13.34;51.12;95301.78;5450409;26;20418;-76
2024/04/15 05:11:42;;;;;;;18.23;6.05;;;;;;;13.31;50.74;95280.59;5447684;26;20017;-76
2024/04/15 05:14:07;;;;;;;15.18;5.95;;;;;;;13.36;50.73;95288.28;5449307;26;20013;-78
2024/04/15 05:16:33;;;;;;;17.35;6.82;;;;;;;13.41;50.79;95293.25;5447907;26;20006;-76
2024/04/15 05:18:58;;;;;;;15.77;8.77;;;;;;;13.43;50.56;95283.31;5446972;26;20407;-76
2024/04/15 05:21:23;;;;;;;13.20;7.53;;;;;;;13.56;50.31;95283.28;5449682;26;20006;-77
2024/04/15 05:23:49;;;;;;;13.63;6.68;;;;;;;13.52;50.23;95288.91;5447087;26;20002;-77
2024/04/15 05:26:14;;;;;;;12.23;6.40;;;;;;;13.51;50.42;95287.38;5447675;26;20005;-76
2024/04/15 05:28:39;;;;;;;11.35;5.85;;;;;;;13.52;50.15;95286.16;5447371;26;20322;-77
2024/04/15 05:31:05;;;;;;;16.83;5.07;;;;;;;13.59;50.08;95290.69;5448058;26;19999;-76
2024/04/15 05:33:30;;;;;;;6.07;4.28;;;;;;;13.65;49.89;95288.09;5449098;26;20388;-76
2024/04/15 05:35:56;;;;;;;9.77;3.97;;;;;;;13.67;49.85;95288.44;5447793;26;20010;-77
2024/04/15 05:38:21;;;;;;;9.63;4.68;;;;;;;13.71;49.91;95289.09;5447245;26;20391;-77
2024/04/15 05:40:47;;;;;;;12.23;4.97;;;;;;;13.78;49.73;95291.59;5447124;26;20009;-77
2024/04/15 05:43:13;;;;;;;6.35;4.07;;;;;;;13.77;49.85;95290.81;5447260;26;20772;-77
2024/04/15 05:45:40;;;;;;;10.63;5.03;;;;;;;13.90;49.83;95278.94;5447138;26;20125;-76
2024/04/15 05:48:06;;;;;;;11.75;5.03;;;;;;;13.91;49.71;95286.00;5447795;26;20010;-76
2024/04/15 05:50:32;;;;;;;11.13;5.35;;;;;;;13.99;49.78;95285.28;5445710;26;19994;-76
2024/04/15 05:52:57;;;;;;;13.13;6.60;;;;;;;14.01;49.77;95274.53;5447880;26;20022;-77
2024/04/15 05:55:23;;;;;;;6.03;4.72;;;;;;;14.07;49.62;95278.28;5444012;26;20351;-76
2024/04/15 05:57:48;;;;;;;10.90;6.13;;;;;;;14.22;49.63;95278.53;5417440;26;20020;-77
2024/04/15 06:00:14;;;;;;;11.75;5.22;;;;;;;14.34;49.38;95276.91;5448822;26;19998;-77
2024/04/15 06:02:39;;;;;;;17.63;6.05;;;;;;;14.39;49.42;95281.81;5446466;26;19995;-77
2024/04/15 06:05:05;;;;;;;14.25;6.10;;;;;;;14.42;49.05;95286.44;5449018;26;20030;-78
2024/04/15 06:07:31;;;;;;;11.38;6.82;;;;;;;14.42;49.25;95277.38;5446847;26;20058;-77
2024/04/15 06:09:56;;;;;;;17.02;6.75;;;;;;;14.46;49.09;95278.03;5449420;26;20009;-77
2024/04/15 06:12:22;;;;;;;16.77;6.18;;;;;;;14.54;48.84;95269.00;5447115;26;19998;-77
2024/04/15 06:14:47;;;;;;;11.55;5.95;;;;;;;14.60;48.71;95267.19;5446950;26;20421;-77
2024/04/15 06:17:12;;;;;;;14.73;6.05;;;;;;;14.68;48.53;95258.59;5447688;26;19998;-77
2024/04/15 06:19:38;;;;;;;12.10;6.40;;;;;;;14.71;48.68;95255.72;5416414;26;19995;-78
2024/04/15 06:22:05;;;;;;;19.63;6.38;;;;;;;14.74;48.72;95262.34;5445961;26;20010;-76
2024/04/15 06:24:30;;;;;;;13.80;6.38;;;;;;;14.83;48.50;95267.88;5446166;26;20349;-77
2024/04/15 06:26:56;;;;;;;14.00;6.00;;;;;;;14.87;48.12;95252.69;5447040;26;20006;-76
2024/04/15 06:29:23;;;;;;;13.18;5.88;;;;;;;14.98;48.10;95257.78;5445572;26;20044;-77
2024/04/15 06:31:49;;;;;;;10.48;6.40;;;;;;;15.12;48.03;95254.44;5417670;26;19995;-76
2024/04/15 06:34:18;;;;;;;9.57;5.30;;;;;;;15.17;48.19;95260.59;5444959;26;20013;-77
2024/04/15 06:36:43;;;;;;;12.20;6.30;;;;;;;15.21;48.15;95253.69;5417976;26;20010;-77
2024/04/15 06:39:08;;;;;;;9.00;5.43;;;;;;;15.25;47.65;95251.50;5446537;26;20349;-77
2024/04/15 06:41:34;;;;;;;11.52;5.57;;;;;;;15.45;47.53;95256.63;5446555;26;20424;-77
2024/04/15 06:43:59;;;;;;;8.75;6.20;;;;;;;15.48;47.57;95254.91;5448530;26;20011;-77
2024/04/15 06:46:25;;;;;;;13.07;5.57;;;;;;;15.49;47.53;95242.63;5445845;26;19995;-77
2024/04/15 06:48:50;;;;;;;14.32;5.57;;;;;;;15.65;47.01;95242.31;5448754;26;20071;-77
2024/04/15 06:51:15;;;;;;;12.60;5.15;;;;;;;15.74;46.73;95238.78;5447060;26;20059;-77
2024/04/15 06:53:41;;;;;;;8.02;5.50;;;;;;;15.82;46.46;95240.78;5447200;26;20007;-77
2024/04/15 06:56:08;;;;;;;9.68;3.90;;;;;;;15.88;46.39;95233.38;5447683;26;19995;-77
2024/04/15 06:58:33;;;;;;;5.47;3.45;;;;;;;15.98;45.08;95242.44;5446653;26;19999;-77
2024/04/15 07:00:59;;;;;;;6.55;3.45;;;;;;;16.12;44.08;95233.50;5446594;26;20027;-77
2024/04/15 07:03:24;;;;;;;11.13;4.43;;;;;;;16.22;43.76;95225.91;5415892;26;20816;-77
2024/04/15 07:05:49;;;;;;;8.82;4.32;;;;;;;16.31;43.75;95233.44;5448413;26;20573;-78
2024/04/15 07:08:15;;;;;;;4.38;3.50;;;;;;;16.40;43.78;95227.84;5446392;26;20418;-77
2024/04/15 07:10:41;;;;;;;10.43;5.18;;;;;;;16.53;43.51;95227.66;5446762;26;19995;-76
2024/04/15 07:13:07;;;;;;;10.73;5.35;;;;;;;16.66;43.00;95228.22;5444747;26;20282;-76
2024/04/15 07:15:33;;;;;;;8.77;4.95;;;;;;;16.76;43.00;95226.97;5445769;26;20011;-76
2024/04/15 07:17:59;;;;;;;8.85;4.82;;;;;;;16.88;42.62;95223.22;5447245;26;20003;-77
2024/04/15 07:20:24;;;;;;;8.10;4.03;;;;;;;17.02;42.60;95221.72;5446936;26;20055;-77
2024/04/15 07:22:50;;;;;;;7.78;4.15;;;;;;;17.11;42.48;95205.00;5446118;26;20008;-77
2024/04/15 07:25:16;;;;;;;6.13;3.50;;;;;;;17.25;42.26;95207.06;5445513;26;20006;-77
2024/04/15 07:27:42;;;;;;;7.07;3.67;;;;;;;17.43;42.10;95217.28;5447795;26;20019;-77
2024/04/15 07:30:08;;;;;;;7.75;3.33;;;;;;;17.56;41.73;95211.47;5414883;26;20002;-76
2024/04/15 07:32:33;;;;;;;9.50;4.85;;;;;;;17.71;41.49;95209.47;5447180;26;19999;-77
2024/04/15 07:34:58;;;;;;;10.05;3.90;;;;;;;17.81;40.78;95204.63;5445312;26;20429;-77
2024/04/15 07:37:24;;;;;;;9.98;3.60;;;;;;;17.92;40.17;95204.06;5445900;26;19995;-78
2024/04/15 07:39:49;;;;;;;5.82;3.63;;;;;;;18.08;40.24;95195.25;5445286;26;20013;-78
2024/04/15 07:42:15;;;;;;;4.70;3.22;;;;;;;18.21;40.23;95194.97;5445380;26;20006;-78
2024/04/15 07:44:41;;;;;;;8.40;3.60;;;;;;;18.34;40.24;95197.44;5445416;26;20005;-78
2024/04/15 07:47:06;;;;;;;7.18;3.17;;;;;;;18.48;39.63;95200.22;5444388;26;20002;-76
2024/04/15 07:49:33;;;;;;;5.68;3.67;;;;;;;18.55;39.63;95188.66;5447102;26;20014;-77
2024/04/15 07:51:58;;;;;;;5.45;3.58;;;;;;;18.73;39.22;95189.72;5444421;26;20009;-77
2024/04/15 07:54:24;;;;;;;7.20;3.55;;;;;;;18.88;39.18;95186.91;5445609;26;19995;-79
2024/04/15 07:56:49;;;;;;;11.57;5.57;;;;;;;19.04;39.13;95180.78;5446219;26;20013;-78
2024/04/15 07:59:14;;;;;;;11.57;6.15;;;;;;;19.22;38.52;95183.28;5385813;26;20014;-77
2024/04/15 08:01:40;;;;;;;14.80;5.63;;;;;;;19.29;38.07;95176.53;5447276;26;20509;-79
2024/04/15 08:04:09;;;;;;;11.68;6.43;;;;;;;19.41;37.91;95169.84;5429232;20;20000;-82
2024/04/15 08:06:35;;;;;;;10.07;5.95;;;;;;;19.55;37.84;95168.97;5400162;26;20011;-75
2024/04/15 08:09:00;;;;;;;10.88;5.68;;;;;;;19.62;37.81;95171.38;5403017;26;20000;-77
2024/04/15 08:11:29;;;;;;;8.77;5.40;;;;;;;19.79;37.66;95168.75;5399724;26;20000;-78
2024/04/15 08:13:57;;;;;;;12.15;5.55;;;;;;;19.90;37.71;95162.53;5403015;26;20365;-78
2024/04/15 08:16:22;;;;;;;9.30;4.70;;;;;;;20.09;37.41;95166.50;5401064;26;20011;-73
2024/04/15 08:18:48;;;;;;;10.95;5.20;;;;;;;20.23;37.02;95152.91;5403377;26;20090;-75
2024/04/15 08:21:14;;;;;;;15.43;6.00;;;;;;;20.48;37.00;95159.75;5370200;26;19996;-76
2024/04/15 08:23:40;;;;;;;15.57;6.07;;;;;;;20.66;36.61;95154.53;5402273;26;20010;-74
2024/04/15 08:26:06;;;;;;;10.63;5.57;;;;;;;20.87;35.73;95152.38;5402777;26;20011;-75
2024/04/15 08:28:32;;;;;;;9.60;4.00;;;;;;;21.03;35.59;95155.75;5399673;26;20035;-76
2024/04/15 08:30:58;;;;;;;9.38;3.97;;;;;;;21.06;35.77;95135.19;5402580;26;20425;-77
2024/04/15 08:33:23;;;;;;;10.63;4.50;;;;;;;21.20;35.73;95132.19;5399264;26;20521;-77
2024/04/15 08:35:49;;;;;;;13.60;4.82;;;;;;;21.38;35.19;95131.00;5401060;26;20371;-74
2024/04/15 08:38:14;;;;;;;13.18;4.63;;;;;;;21.56;34.81;95131.81;5400998;26;20000;-76
2024/04/15 08:40:46;;;;;;;10.88;4.78;;;;;;;21.72;34.59;95129.06;5402459;26;20008;-75
2024/04/15 08:43:13;;;;;;;6.72;4.38;;;;;;;21.87;34.93;95120.44;5371072;26;20487;-76
2024/04/15 08:45:42;;;;;;;10.13;5.80;;;;;;;22.15;34.14;95126.09;5400163;26;19999;-75
2024/04/15 08:48:08;;;;;;;17.10;4.60;;;;;;;22.42;33.48;95120.97;5400617;26;20000;-79
2024/04/15 08:50:34;;;;;;;10.10;5.32;;;;;;;22.68;32.73;95117.88;5400773;26;20003;-75
2024/04/15 08:52:59;;;;;;;8.82;4.25;;;;;;;22.89;32.34;95109.97;5370982;26;19996;-75
2024/04/15 08:55:25;;;;;;;8.90;4.68;;;;;;;23.04;32.35;95099.97;5400554;26;20322;-75
2024/04/15 08:57:51;;;;;;;8.95;3.75;;;;;;;23.40;32.32;95102.09;5400733;26;20005;-74
2024/04/15 09:00:18;;;;;;;10.45;4.40;;;;;;;23.71;31.75;95098.16;5401089;26;20000;-75
2024/04/15 09:02:45;;;;;;;9.52;4.00;;;;;;;23.91;31.52;95092.13;5401803;26;19999;-74
2024/04/15 09:05:11;;;;;;;9.85;4.07;;;;;;;24.26;30.86;95101.84;5398611;26;19995;-76
2024/04/15 09:07:36;;;;;;;5.88;3.88;;;;;;;24.52;29.98;95095.75;5397409;26;20067;-76
2024/04/15 09:10:01;;;;;;;13.38;4.68;;;;;;;24.76;30.15;95089.38;5401807;26;20015;-74
2024/04/15 09:12:43;;;;;;;9.18;4.10;;;;;;;25.13;29.55;95078.25;5402929;26;20007;-76
2024/04/15 09:15:10;;;;;;;10.80;4.32;;;;;;;25.38;29.05;95087.38;5401771;26;20000;-76
2024/04/15 09:17:37;;;;;;;9.88;4.63;;;;;;;25.70;28.69;95078.25;5403812;26;19999;-75
2024/04/15 09:20:02;;;;;;;9.85;4.38;;;;;;;25.94;28.48;95083.03;5401157;26;20006;-76
2024/04/15 09:22:32;;;;;;;12.30;4.35;;;;;;;26.25;27.48;95080.75;5402138;26;20415;-75
2024/04/15 09:24:57;;;;;;;9.98;3.80;;;;;;;26.45;27.66;95063.28;5371558;26;20430;-74
2024/04/15 09:27:24;;;;;;;9.90;4.10;;;;;;;26.72;27.09;95072.50;5401525;26;20006;-74
2024/04/15 09:29:50;;;;;;;14.20;4.40;;;;;;;26.94;27.00;95062.88;5402909;26;20000;-76
2024/04/15 09:32:15;;;;;;;10.15;4.50;;;;;;;27.24;26.65;95056.91;5402389;26;20489;-76
2024/04/15 09:34:41;;;;;;;8.50;3.92;;;;;;;27.48;26.62;95047.44;5403088;26;20015;-75
2024/04/15 09:37:07;;;;;;;14.82;4.40;;;;;;;27.73;25.84;95033.78;5402684;26;20391;-74
2024/04/15 09:39:34;;;;;;;14.73;4.35;;;;;;;28.03;26.06;95036.16;5401210;26;20068;-75
2024/04/15 09:42:00;;;;;;;8.32;3.90;;;;;;;28.34;25.10;95039.28;5402448;26;20350;-76
2024/04/15 09:44:25;;;;;;;10.82;4.55;;;;;;;28.61;24.39;95034.97;5401096;26;20072;-75
2024/04/15 09:46:51;;;;;;;9.73;4.07;;;;;;;28.90;24.18;95038.53;5402690;26;20366;-77
2024/04/15 09:49:17;;;;;;;8.52;4.15;;;;;;;29.21;23.57;95025.34;5402045;26;20000;-73
2024/04/15 09:51:44;;;;;;;10.38;3.42;;;;;;;29.55;23.73;95027.97;5402258;26;20032;-77
2024/04/15 09:54:12;;;;;;;14.32;4.65;;;;;;;29.85;23.76;95015.94;5399617;26;19999;-77
2024/04/15 09:56:42;;;;;;;12.05;4.25;;;;;;;30.18;22.80;95013.38;5401038;26;20020;-75
2024/04/15 09:59:12;;;;;;;10.18;4.32;;;;;;;30.44;22.44;95002.97;5400560;26;19996;-75
2024/04/15 10:01:38;;;;;;;12.88;4.70;;;;;;;30.66;22.18;95005.78;5400873;26;20014;-75
2024/04/15 10:04:18;;;;;;;6.80;3.97;;;;;;;30.91;21.92;94994.63;5400292;26;20023;-75
2024/04/15 10:06:47;;;;;;;7.47;3.20;;;;;;;31.18;21.67;94994.88;5402879;26;20074;-76
2024/04/15 10:09:15;;;;;;;10.68;3.75;;;;;;;31.44;21.62;94990.84;5402469;26;20021;-72
2024/04/15 10:11:40;;;;;;;14.80;4.72;;;;;;;31.70;21.12;94980.28;5402413;26;20530;-74
2024/04/15 10:14:06;;;;;;;8.02;4.05;;;;;;;31.95;21.06;94977.50;5400987;26;20007;-74
2024/04/15 10:16:34;;;;;;;10.30;3.70;;;;;;;32.21;20.33;94971.22;5401751;26;20000;-74
2024/04/15 10:19:00;;;;;;;4.75;3.30;;;;;;;32.37;20.20;94968.28;5402791;26;20040;-76
2024/04/15 10:21:25;;;;;;;10.20;3.78;;;;;;;32.50;19.55;94960.19;5401945;26;19996;-75
2024/04/15 10:23:51;;;;;;;12.50;4.13;;;;;;;32.72;19.81;94964.16;5402639;26;19996;-75
2024/04/15 10:26:16;;;;;;;11.43;4.53;;;;;;;32.96;19.40;94961.84;5402235;26;20008;-75
2024/04/15 10:28:42;;;;;;;6.35;3.33;;;;;;;33.14;19.23;94957.63;5402835;26;20004;-76
2024/04/15 10:31:12;;;;;;;9.35;3.45;;;;;;;33.38;19.46;94949.53;5402350;26;20041;-76
2024/04/15 10:33:51;;;;;;;6.70;3.53;;;;;;;33.61;18.70;94943.56;5401736;26;20000;-76
2024/04/15 10:36:16;;;;;;;9.82;4.07;;;;;;;33.91;18.42;94936.69;5403088;26;20045;-76
2024/04/15 10:38:51;;;;;;;6.80;2.92;;;;;;;34.19;16.93;94941.75;5402375;26;20003;-75
2024/04/15 10:41:21;;;;;;;5.05;3.20;;;;;;;34.45;15.84;94925.94;5402066;26;20000;-75
2024/04/15 10:43:47;;;;;;;5.47;2.65;;;;;;;34.34;15.30;94918.66;5402468;26;20010;-75
2024/04/15 10:46:16;;;;;;;7.70;3.03;;;;;;;34.51;15.76;94914.22;5402454;26;20000;-75
2024/04/15 10:48:42;;;;;;;5.72;3.13;;;;;;;34.70;15.72;94922.06;5402593;26;19999;-76
2024/04/15 10:51:07;;;;;;;7.15;3.00;;;;;;;34.89;15.78;94901.34;5402308;26;20024;-76
2024/04/15 10:53:33;;;;;;;3.95;2.40;;;;;;;35.13;13.98;94918.19;5402427;26;20007;-76
2024/04/15 10:55:58;;;;;;;4.47;2.20;;;;;;;35.08;13.73;94909.91;5402520;26;20096;-76
2024/04/15 10:58:23;;;;;;;5.10;2.22;;;;;;;34.95;13.41;94896.84;5402032;26;20000;-75
2024/04/15 11:00:49;;;;;;;4.53;2.55;;;;;;;34.83;13.51;94902.41;5400856;26;20007;-76
2024/04/15 11:03:16;;;;;;;3.67;2.10;;;;;;;35.36;13.63;94897.69;5400219;26;20470;-76
2024/04/15 11:05:42;;;;;;;5.30;2.15;;;;;;;35.51;13.23;94901.63;5402276;26;20635;-75
2024/04/15 11:08:08;;;;;;;5.22;1.92;;;;;;;35.65;12.34;94889.06;5401484;26;19996;-74
2024/04/15 11:10:35;;;;;;;3.92;1.90;;;;;;;35.22;12.89;94885.25;5402344;26;20391;-75
2024/04/15 11:13:01;;;;;;;3.83;2.20;;;;;;;35.54;12.66;94866.09;5401497;26;19999;-75
2024/04/15 11:15:27;;;;;;;3.42;2.10;;;;;;;35.90;12.28;94873.63;5402078;26;20000;-75
2024/04/15 11:17:54;;;;;;;5.70;1.88;;;;;;;36.21;12.31;94867.91;5400056;26;20434;-75
2024/04/15 11:20:23;;;;;;;4.35;1.70;;;;;;;36.71;12.20;94886.31;5401637;26;20000;-76
2024/04/15 11:22:49;;;;;;;2.63;1.60;;;;;;;36.68;11.14;94856.78;5401332;26;20479;-78